Time;durP1;ratioP1;P1;durP2;ratioP2;P2;SDS_P1;SDS_P2;PMS_P1;PMS_P2;Temp;Humidity;BMP_temperature;BMP_pressure;BME280_temperature;BME280_humidity;BME280_pressure;Samples;Min_cycle;Max_cycle;Signal;HPM_P1;HPM_P2
2021/11/07 00:05:31;;;;;;;20.05;10.98;;;;;;;5.97;100.00;101080.19;6272755;28;20049;-69
2021/11/07 00:12:13;;;;;;;40.97;18.05;;;;;;;6.04;100.00;101061.84;6267748;28;20080;-69
2021/11/07 00:15:16;;;;;;;34.17;17.13;;;;;;;6.08;100.00;101059.19;6256659;28;20463;-69
2021/11/07 00:18:21;;;;;;;26.58;14.60;;;;;;;6.01;100.00;101053.31;6271270;28;20411;-69
2021/11/07 00:21:25;;;;;;;28.52;14.98;;;;;;;6.10;100.00;101042.72;6271145;28;20134;-69
2021/11/07 00:27:46;;;;;;;23.10;14.90;;;;;;;6.03;100.00;101043.75;6271250;28;20120;-69
2021/11/07 00:31:04;;;;;;;27.20;15.95;;;;;;;5.94;100.00;101037.03;6256653;28;20048;-69
2021/11/07 00:37:35;;;;;;;31.05;18.13;;;;;;;6.06;100.00;101046.28;6271093;28;20045;-69
2021/11/07 00:47:22;;;;;;;30.88;18.65;;;;;;;6.21;100.00;101021.69;6270909;28;20079;-70
2021/11/07 00:50:27;;;;;;;28.17;18.98;;;;;;;6.18;100.00;101019.19;6271851;28;20052;-69
2021/11/07 01:00:00;;;;;;;26.27;15.88;;;;;;;6.14;97.70;100983.88;6271372;28;20151;-74
2021/11/07 01:03:09;;;;;;;28.83;15.90;;;;;;;6.10;97.83;100980.53;6271823;28;20048;-73
2021/11/07 01:06:10;;;;;;;30.00;16.92;;;;;;;6.11;97.68;100973.59;6304141;28;20060;-74
2021/11/07 01:09:13;;;;;;;27.42;16.73;;;;;;;6.08;97.70;100971.94;6271877;28;20033;-74
2021/11/07 01:12:14;;;;;;;28.08;15.30;;;;;;;6.05;97.02;100952.16;6271691;28;20624;-73
2021/11/07 01:15:15;;;;;;;32.53;16.80;;;;;;;6.15;100.00;100955.31;6271757;28;20095;-73
2021/11/07 01:18:17;;;;;;;27.50;15.68;;;;;;;6.16;95.88;100948.41;6271749;28;20065;-73
2021/11/07 01:21:18;;;;;;;26.60;15.07;;;;;;;6.22;95.34;100935.28;6271709;28;20056;-73
2021/11/07 01:24:29;;;;;;;25.40;14.68;;;;;;;6.27;98.07;100929.97;6270578;28;20519;-74
2021/11/07 01:27:37;;;;;;;25.02;15.00;;;;;;;6.32;96.01;100925.47;6282767;28;20419;-73
2021/11/07 01:30:47;;;;;;;23.40;13.63;;;;;;;6.35;97.58;100926.25;6294235;28;20479;-73
2021/11/07 01:33:48;;;;;;;22.55;14.45;;;;;;;6.37;94.90;100914.09;6294251;28;20098;-73
2021/11/07 01:36:59;;;;;;;22.90;14.55;;;;;;;6.44;98.29;100915.63;6292725;28;20048;-73
2021/11/07 01:43:01;;;;;;;26.48;15.23;;;;;;;6.47;94.94;100922.44;6294074;28;20098;-73
2021/11/07 01:49:25;;;;;;;23.85;14.00;;;;;;;6.57;94.82;100916.09;6295344;28;20119;-73
2021/11/07 01:52:26;;;;;;;22.58;14.13;;;;;;;6.61;100.00;100915.09;6293922;28;20041;-73
2021/11/07 01:55:27;;;;;;;25.35;13.05;;;;;;;6.64;100.00;100919.34;6293916;28;20482;-73
2021/11/07 01:58:29;;;;;;;22.60;13.88;;;;;;;6.62;100.00;100906.41;6294089;28;20048;-73
2021/11/07 02:01:30;;;;;;;20.95;13.18;;;;;;;6.65;100.00;100913.22;6294985;28;20044;-74
2021/11/07 02:04:30;;;;;;;21.55;13.50;;;;;;;6.72;100.00;100917.34;6278087;28;20090;-73
2021/11/07 02:07:32;;;;;;;22.88;13.10;;;;;;;6.74;100.00;100920.75;6299547;28;20412;-74
2021/11/07 02:10:37;;;;;;;21.42;13.38;;;;;;;6.72;99.48;100914.75;6299402;28;20051;-73
2021/11/07 02:13:38;;;;;;;21.33;13.15;;;;;;;6.75;99.74;100906.88;6299450;28;20041;-73
2021/11/07 02:16:39;;;;;;;25.17;13.60;;;;;;;6.76;100.00;100913.75;6283528;28;20073;-73
2021/11/07 02:19:44;;;;;;;20.88;13.18;;;;;;;6.77;100.00;100910.25;6273261;28;20033;-73
2021/11/07 02:22:45;;;;;;;20.77;13.23;;;;;;;6.71;100.00;100901.81;6274255;28;20488;-73
2021/11/07 02:25:47;;;;;;;23.48;14.55;;;;;;;6.69;100.00;100881.13;6274188;28;20048;-73
2021/11/07 02:28:48;;;;;;;23.85;14.05;;;;;;;6.69;100.00;100881.13;6273102;28;20041;-73
2021/11/07 02:31:51;;;;;;;24.63;14.32;;;;;;;6.73;100.00;100871.50;6272845;28;20049;-73
2021/11/07 02:34:52;;;;;;;20.98;13.55;;;;;;;6.81;100.00;100857.38;6285228;28;20044;-73
2021/11/07 02:37:54;;;;;;;23.95;13.20;;;;;;;6.83;100.00;100844.38;6297648;28;20044;-73
2021/11/07 02:40:55;;;;;;;21.52;14.02;;;;;;;6.90;100.00;100830.31;6298846;28;20047;-73
2021/11/07 02:43:56;;;;;;;24.73;14.55;;;;;;;6.90;100.00;100835.50;6280784;28;20032;-73
2021/11/07 02:46:58;;;;;;;24.80;13.93;;;;;;;6.86;100.00;100837.34;6298683;28;20055;-73
2021/11/07 02:49:59;;;;;;;23.98;14.30;;;;;;;6.88;100.00;100839.91;6298739;28;20052;-73
2021/11/07 02:53:00;;;;;;;20.98;13.77;;;;;;;6.93;100.00;100856.13;6297486;28;20056;-73
2021/11/07 02:56:01;;;;;;;23.25;14.40;;;;;;;6.95;100.00;100854.34;6297270;28;20044;-73
2021/11/07 02:59:04;;;;;;;27.75;14.30;;;;;;;7.02;100.00;100853.25;6280450;28;20036;-73
2021/11/07 03:02:06;;;;;;;25.70;14.40;;;;;;;7.02;100.00;100842.88;6298261;28;20101;-73
2021/11/07 03:05:08;;;;;;;;;;;;;;;7.06;100.00;100839.28;6297569;28;20051;-73
2021/11/07 03:08:09;;;;;;;25.48;14.52;;;;;;;7.09;100.00;100842.66;6298299;28;20287;-73
2021/11/07 03:11:11;;;;;;;25.02;15.18;;;;;;;7.11;100.00;100846.91;6297930;28;20063;-73
2021/11/07 03:14:18;;;;;;;23.60;14.43;;;;;;;7.12;100.00;100843.38;6296720;28;20090;-74
2021/11/07 03:17:25;;;;;;;23.25;14.18;;;;;;;7.08;100.00;100849.59;6296437;28;20042;-74
2021/11/07 03:20:26;;;;;;;27.33;15.88;;;;;;;7.07;100.00;100835.78;6297751;28;20045;-73
2021/11/07 03:23:27;;;;;;;23.38;14.25;;;;;;;7.05;100.00;100827.19;6296385;28;20049;-74
2021/11/07 03:26:30;;;;;;;27.00;15.23;;;;;;;7.07;100.00;100827.13;6296627;28;20056;-73
2021/11/07 03:29:34;;;;;;;28.02;15.07;;;;;;;7.14;100.00;100827.78;6297497;28;20047;-74
2021/11/07 03:32:38;;;;;;;27.17;14.82;;;;;;;7.14;100.00;100818.22;6297407;28;20380;-73
2021/11/07 03:35:41;;;;;;;28.48;15.05;;;;;;;7.06;100.00;100799.47;6297872;28;20124;-74
2021/11/07 03:38:42;;;;;;;26.38;14.93;;;;;;;6.99;100.00;100787.63;6297237;28;20132;-73
2021/11/07 03:41:44;;;;;;;29.48;17.00;;;;;;;7.09;100.00;100796.78;6296051;28;20064;-73
2021/11/07 03:44:45;;;;;;;27.20;17.05;;;;;;;7.12;100.00;100799.28;6297372;28;20051;-73
2021/11/07 03:47:47;;;;;;;29.42;17.38;;;;;;;7.19;100.00;100805.13;6281092;28;20446;-73
2021/11/07 03:50:48;;;;;;;26.15;16.55;;;;;;;7.23;100.00;100797.16;6273119;28;20049;-73
2021/11/07 03:53:49;;;;;;;27.83;16.00;;;;;;;7.22;100.00;100790.25;6292068;28;20041;-73
2021/11/07 03:56:50;;;;;;;27.02;15.63;;;;;;;7.27;100.00;100795.31;6296702;28;20547;-73
2021/11/07 03:59:51;;;;;;;26.88;15.90;;;;;;;7.29;100.00;100780.53;6298052;28;20124;-73
2021/11/07 04:02:52;;;;;;;30.02;15.77;;;;;;;7.27;100.00;100787.53;6297609;28;20044;-73
2021/11/07 04:05:53;;;;;;;27.17;15.55;;;;;;;7.32;100.00;100777.81;6296408;28;20401;-73
2021/11/07 04:08:54;;;;;;;22.02;14.30;;;;;;;7.30;100.00;100760.59;6271598;28;20041;-73
2021/11/07 04:11:55;;;;;;;28.05;15.70;;;;;;;7.30;100.00;100755.41;6272626;28;20055;-73
2021/11/07 04:14:55;;;;;;;26.88;15.98;;;;;;;7.29;100.00;100751.09;6272687;28;20476;-73
2021/11/07 04:17:56;;;;;;;25.80;15.70;;;;;;;7.28;100.00;100746.84;6271670;28;20120;-73
2021/11/07 04:20:57;;;;;;;27.15;15.80;;;;;;;7.34;100.00;100747.44;6272645;28;20403;-73
2021/11/07 04:23:58;;;;;;;26.65;14.27;;;;;;;7.42;100.00;100739.38;6271157;28;20068;-74
2021/11/07 04:26:59;;;;;;;26.70;14.60;;;;;;;7.47;100.00;100746.09;6272059;28;20480;-74
2021/11/07 04:30:00;;;;;;;26.67;15.52;;;;;;;7.45;100.00;100745.31;6271337;28;20072;-73
2021/11/07 04:33:02;;;;;;;26.42;15.07;;;;;;;7.45;100.00;100749.66;6272373;28;20098;-73
2021/11/07 04:36:05;;;;;;;26.20;15.32;;;;;;;7.45;100.00;100744.44;6254590;28;20055;-73
2021/11/07 04:39:06;;;;;;;29.85;17.60;;;;;;;7.48;100.00;100741.75;6272210;28;20045;-73
2021/11/07 04:42:07;;;;;;;33.10;19.42;;;;;;;7.49;100.00;100743.44;6276825;28;20060;-73
2021/11/07 04:45:09;;;;;;;44.03;25.40;;;;;;;7.49;100.00;100745.19;6296862;28;20040;-73
2021/11/07 04:48:10;;;;;;;43.05;25.33;;;;;;;7.41;100.00;100748.94;6296932;28;20044;-69
2021/11/07 04:51:11;;;;;;;30.67;17.33;;;;;;;7.40;100.00;100755.00;6278451;28;20190;-69
2021/11/07 04:54:12;;;;;;;30.08;16.25;;;;;;;7.53;100.00;100749.38;6296742;28;20119;-69
2021/11/07 04:57:13;;;;;;;28.38;16.40;;;;;;;7.54;100.00;100723.34;6296642;28;20049;-69
2021/11/07 05:00:21;;;;;;;26.65;17.13;;;;;;;7.51;100.00;100709.63;6295624;28;20479;-68
2021/11/07 05:03:21;;;;;;;27.63;17.15;;;;;;;7.48;100.00;100705.41;6296697;28;20040;-69
2021/11/07 05:06:23;;;;;;;25.50;16.08;;;;;;;7.39;100.00;100697.94;6296674;28;20536;-69
2021/11/07 05:09:23;;;;;;;26.88;16.73;;;;;;;7.37;100.00;100702.34;6295433;28;20045;-69
2021/11/07 05:12:25;;;;;;;28.70;16.13;;;;;;;7.41;100.00;100706.53;6295371;28;20094;-69
2021/11/07 05:15:26;;;;;;;28.73;16.92;;;;;;;7.37;100.00;100713.59;6295146;28;20052;-69
2021/11/07 05:18:27;;;;;;;28.52;17.50;;;;;;;7.33;100.00;100714.63;6295138;28;20053;-73
2021/11/07 05:21:28;;;;;;;30.55;18.33;;;;;;;7.29;100.00;100713.03;6295705;28;20041;-73
2021/11/07 05:24:28;;;;;;;36.45;17.17;;;;;;;7.37;100.00;100711.00;6295365;28;20078;-73
2021/11/07 05:27:29;;;;;;;26.38;16.33;;;;;;;7.38;100.00;100709.25;6283714;28;20057;-74
2021/11/07 05:30:30;;;;;;;29.25;18.13;;;;;;;7.31;100.00;100724.22;6270346;28;20045;-74
2021/11/07 05:33:31;;;;;;;26.02;16.15;;;;;;;7.36;100.00;100732.66;6271535;28;20037;-74
2021/11/07 05:36:33;;;;;;;28.38;16.00;;;;;;;7.35;100.00;100722.31;6271328;28;20041;-73
2021/11/07 05:39:34;;;;;;;27.65;16.48;;;;;;;7.38;100.00;100728.25;6272444;28;20041;-73
2021/11/07 05:42:36;;;;;;;25.87;16.90;;;;;;;7.39;100.00;100732.56;6276393;28;20045;-73
2021/11/07 05:45:37;;;;;;;31.73;16.27;;;;;;;7.43;100.00;100728.06;6258508;28;20040;-73
2021/11/07 05:48:39;;;;;;;28.98;15.95;;;;;;;7.42;100.00;100726.41;6275134;28;20154;-74
2021/11/07 05:51:40;;;;;;;28.63;15.65;;;;;;;7.42;100.00;100729.00;6258326;28;20084;-74
2021/11/07 05:54:40;;;;;;;25.98;16.55;;;;;;;7.47;100.00;100727.94;6275455;28;20111;-74
2021/11/07 05:57:42;;;;;;;25.77;16.23;;;;;;;7.49;100.00;100735.66;6292088;28;20082;-74
2021/11/07 06:00:44;;;;;;;29.25;17.70;;;;;;;7.52;100.00;100742.50;6298529;28;20383;-73
2021/11/07 06:03:45;;;;;;;26.70;15.75;;;;;;;7.52;100.00;100745.94;6298452;28;20131;-73
2021/11/07 06:06:46;;;;;;;24.42;16.15;;;;;;;7.54;100.00;100745.88;6291175;28;20083;-73
2021/11/07 06:09:47;;;;;;;27.33;15.40;;;;;;;7.44;100.00;100741.00;6273533;28;20083;-73
2021/11/07 06:12:48;;;;;;;25.45;16.33;;;;;;;7.58;100.00;100734.47;6256782;28;20037;-73
2021/11/07 06:15:50;;;;;;;25.85;16.58;;;;;;;7.67;100.00;100739.31;6274421;28;20044;-73
2021/11/07 06:18:51;;;;;;;27.45;16.42;;;;;;;7.72;100.00;100719.22;6273331;28;20476;-73
2021/11/07 06:21:53;;;;;;;29.35;16.80;;;;;;;7.77;100.00;100732.03;6256765;28;20095;-73
2021/11/07 06:24:54;;;;;;;;;;;;;;;7.81;100.00;100726.63;6273662;28;20124;-73
2021/11/07 06:27:54;;;;;;;26.50;16.50;;;;;;;7.83;100.00;100729.19;6276790;28;19920;-73
2021/11/07 06:30:59;;;;;;;32.38;17.75;;;;;;;7.78;100.00;100737.16;6274494;28;20039;-74
2021/11/07 06:34:00;;;;;;;29.35;17.60;;;;;;;7.85;100.00;100724.78;6274437;28;20044;-74
2021/11/07 06:37:01;;;;;;;25.45;17.17;;;;;;;7.92;100.00;100718.41;6256581;28;20400;-74
2021/11/07 06:40:03;;;;;;;29.02;16.98;;;;;;;7.94;100.00;100718.38;6274268;28;20178;-75
2021/11/07 06:43:04;;;;;;;29.88;17.00;;;;;;;7.99;100.00;100729.41;6272959;28;20041;-75
2021/11/07 06:46:05;;;;;;;26.13;16.52;;;;;;;7.98;100.00;100746.75;6272897;28;20419;-75
2021/11/07 06:49:10;;;;;;;35.85;20.38;;;;;;;7.72;100.00;100752.97;6274489;28;20041;-76
2021/11/07 06:52:11;;;;;;;34.88;20.42;;;;;;;7.00;100.00;100745.19;6273519;28;20056;-76
2021/11/07 06:55:13;;;;;;;33.08;20.15;;;;;;;7.58;100.00;100735.31;6273099;28;20061;-76
2021/11/07 06:58:14;;;;;;;;;;;;;;;7.80;100.00;100724.97;6289849;28;20068;-76
2021/11/07 07:01:14;;;;;;;29.20;17.95;;;;;;;7.98;100.00;100722.53;6299420;28;20298;-75
2021/11/07 07:04:15;;;;;;;30.63;18.73;;;;;;;8.10;100.00;100735.03;6298086;28;20052;-75
2021/11/07 07:07:17;;;;;;;37.97;20.15;;;;;;;8.02;100.00;100745.72;6299174;28;20127;-75
2021/11/07 07:10:25;;;;;;;32.83;20.27;;;;;;;8.08;100.00;100750.69;6281598;28;20055;-75
2021/11/07 07:13:37;;;;;;;30.15;18.45;;;;;;;8.18;100.00;100732.16;6297934;28;20040;-76
2021/11/07 07:23:21;;;;;;;39.72;20.67;;;;;;;7.35;100.00;100749.16;6297671;28;20040;-76
2021/11/07 07:29:53;;;;;;;34.05;19.83;;;;;;;8.00;100.00;100762.31;6298757;28;20109;-76
2021/11/07 07:36:01;;;;;;;31.75;19.17;;;;;;;7.77;100.00;100745.00;6273017;28;20559;-75
2021/11/07 07:39:04;;;;;;;31.35;18.48;;;;;;;7.96;100.00;100758.97;6273677;28;20045;-76
2021/11/07 07:42:05;;;;;;;26.42;17.38;;;;;;;7.97;100.00;100767.59;6273448;28;20048;-75
2021/11/07 07:45:07;;;;;;;43.03;25.80;;;;;;;7.60;100.00;100767.28;6273566;28;20041;-75
2021/11/07 07:48:09;;;;;;;;;;;;;;;7.83;100.00;100786.34;6273814;28;20037;-74
2021/11/07 07:51:12;;;;;;;31.60;18.83;;;;;;;7.38;100.00;100787.13;6271919;28;19921;-74
2021/11/07 07:54:13;;;;;;;35.90;20.08;;;;;;;7.55;100.00;100776.13;6255769;28;20072;-75
2021/11/07 07:57:14;;;;;;;33.85;19.85;;;;;;;7.47;100.00;100750.44;6271816;28;20037;-75
2021/11/07 08:00:17;;;;;;;32.88;20.60;;;;;;;7.93;100.00;100721.84;6271856;28;20064;-75
2021/11/07 08:03:18;;;;;;;36.63;20.60;;;;;;;7.79;100.00;100714.63;6271977;28;20048;-74
2021/11/07 08:06:20;;;;;;;29.13;18.98;;;;;;;8.01;100.00;100722.41;6271537;28;20404;-75
2021/11/07 08:09:22;;;;;;;31.23;19.23;;;;;;;8.00;100.00;100708.56;6271747;28;20049;-74
2021/11/07 08:12:23;;;;;;;29.42;19.23;;;;;;;8.34;100.00;100694.22;6272472;28;20039;-75
2021/11/07 08:15:24;;;;;;;31.75;20.23;;;;;;;8.43;100.00;100719.00;6287490;28;20037;-74
2021/11/07 08:18:26;;;;;;;35.55;19.60;;;;;;;8.20;100.00;100699.13;6272312;28;20044;-74
2021/11/07 08:21:30;;;;;;;32.60;18.67;;;;;;;8.42;100.00;100699.97;6272280;28;20077;-75
2021/11/07 08:24:31;;;;;;;31.23;19.25;;;;;;;7.79;100.00;100699.88;6272216;28;20041;-75
2021/11/07 08:27:32;;;;;;;32.60;19.73;;;;;;;7.33;100.00;100670.47;6271046;28;20048;-74
2021/11/07 08:30:39;;;;;;;33.92;20.42;;;;;;;7.18;100.00;100651.13;6287707;28;20040;-74
2021/11/07 08:33:41;;;;;;;32.97;19.63;;;;;;;7.22;100.00;100616.34;6272155;28;20041;-74
2021/11/07 08:37:06;;;;;;;33.97;20.48;;;;;;;7.28;100.00;100612.69;6287058;28;20044;-74
2021/11/07 08:40:07;;;;;;;36.45;20.42;;;;;;;7.28;100.00;100607.50;6271664;28;20060;-74
2021/11/07 09:06:25;;;;;;;29.17;18.90;;;;;;;7.44;100.00;100623.34;6283062;28;20041;-74
2021/11/07 09:09:32;;;;;;;28.58;16.90;;;;;;;7.33;100.00;100654.03;6296228;28;20041;-74
2021/11/07 09:12:33;;;;;;;31.63;18.95;;;;;;;7.39;100.00;100669.38;6296359;28;20040;-74
2021/11/07 09:15:36;;;;;;;28.40;18.38;;;;;;;7.39;100.00;100682.38;6299450;28;20081;-75
2021/11/07 09:18:37;;;;;;;25.40;16.38;;;;;;;7.42;100.00;100674.47;6300161;28;20044;-74
2021/11/07 09:21:42;;;;;;;24.88;15.55;;;;;;;7.42;100.00;100657.13;6300148;28;20396;-74
2021/11/07 09:24:48;;;;;;;24.65;14.65;;;;;;;7.50;100.00;100659.44;6280500;28;20062;-73
2021/11/07 09:27:57;;;;;;;22.63;13.95;;;;;;;7.45;100.00;100640.59;6274810;28;20041;-73
2021/11/07 09:31:11;;;;;;;22.63;14.93;;;;;;;7.50;100.00;100627.44;6275007;28;20095;-73
2021/11/07 09:34:21;;;;;;;28.17;18.45;;;;;;;7.45;100.00;100630.19;6274879;28;20491;-74
2021/11/07 09:40:26;;;;;;;29.75;19.45;;;;;;;7.40;100.00;100614.81;6274655;28;20041;-74
2021/11/07 09:46:51;;;;;;;29.40;17.55;;;;;;;7.56;100.00;100629.81;6274604;28;20107;-73
2021/11/07 09:49:53;;;;;;;29.63;19.13;;;;;;;7.58;100.00;100625.41;6274553;28;20072;-74
2021/11/07 09:52:55;;;;;;;30.52;19.73;;;;;;;7.58;100.00;100623.63;6257956;28;20068;-74
2021/11/07 09:55:56;;;;;;;29.33;19.17;;;;;;;7.64;100.00;100626.00;6257847;28;20045;-74
2021/11/07 09:58:59;;;;;;;30.40;17.33;;;;;;;7.64;100.00;100612.16;6275403;28;20483;-74
2021/11/07 10:02:03;;;;;;;28.95;18.00;;;;;;;7.64;100.00;100597.44;6289681;28;20532;-74
2021/11/07 10:05:04;;;;;;;32.15;19.92;;;;;;;7.66;100.00;100597.38;6299017;28;20407;-74
2021/11/07 10:08:08;;;;;;;73.57;35.65;;;;;;;7.59;100.00;100588.97;6298941;28;20049;-74
2021/11/07 10:11:11;;;;;;;47.03;26.77;;;;;;;7.58;100.00;100573.47;6300163;28;20128;-74
2021/11/07 10:14:20;;;;;;;45.58;25.08;;;;;;;7.63;100.00;100582.72;6282346;28;20055;-74
2021/11/07 10:17:42;;;;;;;55.33;31.38;;;;;;;7.66;100.00;100568.81;6298422;28;20047;-74
2021/11/07 10:20:51;;;;;;;48.55;24.75;;;;;;;7.62;100.00;100559.44;6299846;28;20089;-74
2021/11/07 10:24:08;;;;;;;45.70;23.42;;;;;;;7.58;100.00;100555.28;6299554;28;20040;-74
2021/11/07 10:27:13;;;;;;;45.65;24.17;;;;;;;7.63;100.00;100566.31;6297405;28;20040;-74
2021/11/07 10:30:19;;;;;;;54.45;26.90;;;;;;;7.68;100.00;100551.41;6298302;28;20045;-74
2021/11/07 10:33:54;;;;;;;66.32;29.70;;;;;;;7.67;100.00;100534.94;6299775;28;20496;-74
2021/11/07 10:40:39;;;;;;;57.05;28.10;;;;;;;7.52;100.00;100521.78;6292149;28;20048;-73
2021/11/07 10:43:53;;;;;;;57.20;28.70;;;;;;;7.57;100.00;100512.84;6297896;28;20041;-74
2021/11/07 10:53:25;;;;;;;59.38;32.42;;;;;;;7.61;100.00;100547.34;6297961;28;20139;-74
2021/11/07 10:56:26;;;;;;;62.42;31.25;;;;;;;7.73;100.00;100549.44;6298856;28;20122;-74
2021/11/07 10:59:28;;;;;;;60.55;32.60;;;;;;;7.77;100.00;100543.22;6280861;28;20053;-74
2021/11/07 11:02:42;;;;;;;69.90;38.20;;;;;;;7.70;100.00;100528.81;6297452;28;20072;-73
2021/11/07 11:05:51;;;;;;;65.35;36.78;;;;;;;7.75;100.00;100511.25;6297545;28;20044;-74
2021/11/07 11:09:34;;;;;;;80.18;41.17;;;;;;;7.81;100.00;100495.41;6298794;28;20045;-74
2021/11/07 11:12:23;;;;;;;85.95;41.88;;;;;;;7.83;100.00;100500.56;6296331;28;20072;-74
2021/11/07 11:15:34;;;;;;;71.70;37.92;;;;;;;7.77;100.00;100487.81;6281046;28;20135;-74
2021/11/07 11:22:09;;;;;;;64.88;37.40;;;;;;;7.70;100.00;100483.78;6297267;28;20045;-74
2021/11/07 11:28:47;;;;;;;66.38;35.92;;;;;;;7.61;100.00;100485.03;6296603;28;20041;-71
2021/11/07 11:32:06;;;;;;;61.90;32.60;;;;;;;7.65;100.00;100490.00;6296603;28;20040;-71
2021/11/07 11:38:50;;;;;;;60.58;32.10;;;;;;;7.73;100.00;100476.72;6246028;28;20049;-71
2021/11/07 11:42:00;;;;;;;69.10;38.10;;;;;;;7.83;100.00;100456.38;6297309;28;20045;-71
2021/11/07 11:45:03;;;;;;;67.38;38.22;;;;;;;7.94;100.00;100450.72;6296198;28;20041;-71
2021/11/07 11:52:08;;;;;;;54.85;32.65;;;;;;;7.98;100.00;100460.91;6297012;28;20055;-71
2021/11/07 11:55:32;;;;;;;68.95;36.88;;;;;;;7.92;100.00;100447.34;6295854;28;20040;-71
2021/11/07 11:58:49;;;;;;;55.58;32.22;;;;;;;8.02;100.00;100444.25;6297059;28;20047;-74
2021/11/07 12:02:24;;;;;;;57.58;33.60;;;;;;;8.07;100.00;100450.13;6297158;28;20045;-74
2021/11/07 12:12:49;;;;;;;52.28;29.77;;;;;;;8.11;100.00;100442.16;6277770;28;20392;-74
2021/11/07 12:15:51;;;;;;;52.15;31.15;;;;;;;8.14;100.00;100452.44;6296807;28;20040;-74
2021/11/07 12:19:02;;;;;;;;;;;;;;;8.19;100.00;100450.47;6297052;28;20093;-74
2021/11/07 12:22:07;;;;;;;52.45;31.83;;;;;;;8.27;100.00;100435.38;6296880;28;19926;-74
2021/11/07 12:25:10;;;;;;;56.17;35.20;;;;;;;8.20;100.00;100440.00;6297181;28;20257;-74
2021/11/07 12:28:12;;;;;;;53.15;31.58;;;;;;;8.36;100.00;100432.38;6278926;28;20040;-74
2021/11/07 12:31:13;;;;;;;61.20;32.70;;;;;;;8.39;100.00;100427.00;6295557;28;20086;-74
2021/11/07 12:34:20;;;;;;;52.17;29.73;;;;;;;8.32;100.00;100412.63;6295285;28;20040;-74
2021/11/07 12:41:07;;;;;;;46.97;27.42;;;;;;;8.33;100.00;100403.88;6296355;28;20048;-74
2021/11/07 12:44:21;;;;;;;46.28;27.70;;;;;;;8.42;100.00;100400.06;6296204;28;20048;-73
2021/11/07 12:47:27;;;;;;;50.22;28.75;;;;;;;8.45;100.00;100387.75;6295046;28;20043;-73
2021/11/07 12:50:28;;;;;;;41.17;24.55;;;;;;;8.38;100.00;100386.34;6295429;28;20139;-73
2021/11/07 12:53:50;;;;;;;40.92;22.98;;;;;;;8.41;100.00;100391.41;6296148;28;20079;-74
2021/11/07 12:57:00;;;;;;;35.03;21.92;;;;;;;8.34;100.00;100390.00;6294636;28;20048;-74
2021/11/07 13:00:06;;;;;;;34.15;22.10;;;;;;;8.32;100.00;100397.03;6295063;28;20279;-73
2021/11/07 13:03:11;;;;;;;36.45;23.52;;;;;;;8.35;100.00;100409.03;6294768;28;20051;-73
2021/11/07 13:06:12;;;;;;;38.35;23.55;;;;;;;8.33;100.00;100406.50;6296027;28;20044;-74
2021/11/07 13:09:14;;;;;;;39.47;24.27;;;;;;;8.31;100.00;100407.47;6277995;28;20040;-74
2021/11/07 13:12:22;;;;;;;37.90;24.70;;;;;;;8.42;100.00;100394.84;6295980;28;20452;-73
2021/11/07 13:18:56;;;;;;;37.00;23.23;;;;;;;8.42;100.00;100385.31;6295681;28;20045;-73
2021/11/07 13:25:47;;;;;;;35.72;22.67;;;;;;;8.38;100.00;100386.34;6294739;28;20048;-74
2021/11/07 13:28:42;;;;;;;36.08;23.65;;;;;;;8.38;100.00;100388.94;6294391;28;20111;-74
2021/11/07 13:31:44;;;;;;;37.00;22.67;;;;;;;8.51;100.00;100383.19;6294602;28;20053;-74
2021/11/07 13:34:55;;;;;;;;;;;;;;;8.61;100.00;100403.50;6277970;28;20483;-73
2021/11/07 13:38:02;;;;;;;32.10;19.20;;;;;;;8.52;100.00;100396.09;6295563;28;19927;-74
2021/11/07 13:41:13;;;;;;;30.42;19.15;;;;;;;8.42;100.00;100380.13;6295332;28;20174;-74
2021/11/07 13:44:17;;;;;;;34.50;19.77;;;;;;;8.55;100.00;100356.13;6295432;28;20044;-74
2021/11/07 13:47:18;;;;;;;30.13;19.02;;;;;;;8.49;100.00;100354.66;6295768;28;20127;-70
2021/11/07 13:50:22;;;;;;;37.78;19.65;;;;;;;8.51;100.00;100352.81;6295122;28;20402;-70
2021/11/07 13:53:30;;;;;;;26.50;17.63;;;;;;;8.44;100.00;100357.47;6295126;28;20426;-70
2021/11/07 13:56:32;;;;;;;33.50;19.52;;;;;;;8.48;100.00;100358.16;6295083;28;20053;-70
2021/11/07 13:59:43;;;;;;;28.38;18.63;;;;;;;8.43;100.00;100362.75;6293827;28;20407;-70
2021/11/07 14:02:47;;;;;;;27.75;18.05;;;;;;;8.51;100.00;100359.78;6299464;28;20479;-74
2021/11/07 14:06:00;;;;;;;26.30;18.27;;;;;;;8.53;100.00;100347.56;6300156;28;20049;-74
2021/11/07 14:09:04;;;;;;;31.48;19.45;;;;;;;8.59;100.00;100353.31;6300047;28;20497;-74
2021/11/07 14:12:05;;;;;;;34.03;19.98;;;;;;;8.66;100.00;100340.84;6282099;28;20166;-74
2021/11/07 14:15:17;;;;;;;31.83;18.52;;;;;;;8.65;100.00;100326.16;6299403;28;20036;-74
2021/11/07 14:18:29;;;;;;;31.63;21.20;;;;;;;8.61;100.00;100332.44;6298442;28;20403;-74
2021/11/07 14:21:32;;;;;;;33.50;21.40;;;;;;;8.62;100.00;100323.69;6299421;28;20490;-74
2021/11/07 14:24:36;;;;;;;30.65;19.60;;;;;;;8.57;100.00;100317.88;6299241;28;20131;-74
2021/11/07 14:27:47;;;;;;;36.05;21.50;;;;;;;8.62;100.00;100321.91;6281760;28;20068;-74
2021/11/07 14:30:48;;;;;;;31.77;20.02;;;;;;;8.52;100.00;100301.66;6297863;28;20546;-74
2021/11/07 14:41:07;;;;;;;35.20;21.85;;;;;;;8.57;100.00;100325.69;6290591;28;20064;-74
2021/11/07 14:44:25;;;;;;;39.42;23.73;;;;;;;8.53;100.00;100311.97;6298884;28;20097;-74
2021/11/07 14:47:30;;;;;;;37.70;23.88;;;;;;;8.60;100.00;100307.31;6297739;28;20055;-74
2021/11/07 14:54:19;;;;;;;36.63;23.38;;;;;;;8.39;100.00;100307.41;6298582;28;20052;-74
2021/11/07 15:00:36;;;;;;;38.70;23.63;;;;;;;8.39;100.00;100310.00;6297132;28;20422;-74
2021/11/07 15:03:52;;;;;;;44.08;27.90;;;;;;;8.46;100.00;100311.44;6281460;28;20063;-74
2021/11/07 15:07:02;;;;;;;43.25;25.67;;;;;;;8.73;100.00;100303.22;6298424;28;20055;-74
2021/11/07 15:16:49;;;;;;;61.70;36.37;;;;;;;9.26;100.00;100284.00;6297947;28;20402;-70
2021/11/07 15:20:00;;;;;;;70.18;41.13;;;;;;;9.29;100.00;100283.03;6281206;28;20281;-70
2021/11/07 15:23:02;;;;;;;46.30;28.83;;;;;;;9.27;100.00;100279.66;6281717;28;20043;-70
2021/11/07 15:26:21;;;;;;;39.67;25.08;;;;;;;8.69;100.00;100283.47;6297891;28;20094;-73
2021/11/07 15:29:30;;;;;;;37.88;24.25;;;;;;;8.45;100.00;100268.13;6296402;28;20059;-70
2021/11/07 15:32:36;;;;;;;36.75;24.88;;;;;;;8.32;100.00;100259.22;6296452;28;20041;-70
2021/11/07 15:35:37;;;;;;;42.35;25.80;;;;;;;8.30;100.00;100268.84;6297359;28;20479;-70
2021/11/07 15:38:39;;;;;;;46.78;29.17;;;;;;;8.30;100.00;100268.84;6279736;28;20165;-70
2021/11/07 15:42:05;;;;;;;41.28;25.25;;;;;;;8.28;100.00;100276.72;6296080;28;20036;-70
2021/11/07 15:45:19;;;;;;;35.70;23.50;;;;;;;8.33;100.00;100281.69;6297325;28;20040;-70
2021/11/07 15:48:20;;;;;;;37.08;22.45;;;;;;;8.28;100.00;100279.31;6297817;28;20041;-73
2021/11/07 15:54:27;;;;;;;48.67;28.13;;;;;;;8.36;100.00;100293.69;6296197;28;20052;-70
2021/11/07 15:57:38;;;;;;;40.95;26.33;;;;;;;8.30;100.00;100289.66;6296256;28;20633;-71
2021/11/07 16:04:07;;;;;;;33.53;19.90;;;;;;;8.30;100.00;100294.00;6281957;28;20487;-74
2021/11/07 16:07:16;;;;;;;36.58;22.48;;;;;;;8.21;100.00;100285.72;6295599;28;20476;-70
2021/11/07 16:10:44;;;;;;;34.28;21.65;;;;;;;8.23;100.00;100294.28;6295613;28;20044;-70
2021/11/07 16:14:13;;;;;;;37.15;21.13;;;;;;;8.15;100.00;100304.19;6295812;28;20047;-70
2021/11/07 16:17:27;;;;;;;32.28;20.27;;;;;;;8.18;100.00;100290.25;6281193;28;20045;-74
2021/11/07 16:20:29;;;;;;;35.40;21.25;;;;;;;8.23;100.00;100290.84;6296544;28;20166;-74
2021/11/07 16:23:30;;;;;;;36.58;21.60;;;;;;;8.18;100.00;100288.47;6294589;28;20045;-74
2021/11/07 16:26:31;;;;;;;36.30;21.42;;;;;;;8.19;100.00;100281.50;6296512;28;20136;-74
2021/11/07 16:29:33;;;;;;;37.10;23.20;;;;;;;8.19;100.00;100291.91;6295265;28;20061;-74